BAW8474 LEMG-EGLC
Flight info
| Callsign | BAW8474 |
|---|---|
| Flight time | N/A |
| Altitude | 39000 |
| Route | BLN DCT MORAL DCT BEXID DCT VTB DCT RBO N867 BLV DCT BISKA DCT BADRU DCT BELEN DCT DIDIG DCT MOKOR DCT OLEBA DCT ROGPU DCT DIKRO DCT ANGLO UZ273 NEVIL |
| Aircraft | A20N/M-SDE2E3FGHIRWXY/LB1 |
Departure
| Time | 2026-04-30 06:21 |
|---|---|
| Airport | Málaga-Costa del Sol Airport (LEMG) |
Arrival
| Time | N/A |
|---|---|
| Airport | London City Airport (EGLC) |
| Time | Latitude | Longitude | Altitude | Speed | Heading |
|---|---|---|---|---|---|
| 2026-04-30 06:15 | 36.67244 | -4.49035 | 52 ft | 0 kts | 14° |
| 2026-04-30 06:18 | 36.67238 | -4.49037 | 52 ft | 3 kts | 14° |
| 2026-04-30 06:18 | 36.67220 | -4.49043 | 52 ft | 3 kts | 349° |
| 2026-04-30 06:18 | 36.67211 | -4.49038 | 50 ft | 0 kts | 316° |
| 2026-04-30 06:19 | 36.67206 | -4.49032 | 48 ft | 3 kts | 316° |
| 2026-04-30 06:19 | 36.67203 | -4.49028 | 47 ft | 0 kts | 316° |
| 2026-04-30 06:19 | 36.67195 | -4.49015 | 48 ft | 2 kts | 267° |
| 2026-04-30 06:19 | 36.67197 | -4.49003 | 48 ft | 1 kts | 223° |
| 2026-04-30 06:20 | 36.67131 | -4.49087 | 51 ft | 27 kts | 235° |
| 2026-04-30 06:20 | 36.67115 | -4.49345 | 51 ft | 31 kts | 287° |
| 2026-04-30 06:20 | 36.67318 | -4.49669 | 50 ft | 88 kts | 311° |
| 2026-04-30 06:20 | 36.67937 | -4.50538 | 296 ft | 162 kts | 310° |
| 2026-04-30 06:21 | 36.68737 | -4.51737 | 1109 ft | 196 kts | 309° |
| 2026-04-30 06:21 | 36.69689 | -4.53156 | 1993 ft | 232 kts | 313° |
| 2026-04-30 06:21 | 36.71102 | -4.54344 | 2944 ft | 258 kts | 339° |
| 2026-04-30 06:21 | 36.72883 | -4.54436 | 4516 ft | 258 kts | 10° |
| 2026-04-30 06:22 | 36.74605 | -4.53842 | 6137 ft | 256 kts | 17° |
| 2026-04-30 06:22 | 36.76277 | -4.53115 | 7548 ft | 259 kts | 18° |
| 2026-04-30 06:22 | 36.78008 | -4.52331 | 8838 ft | 268 kts | 18° |
| 2026-04-30 06:22 | 36.79797 | -4.51520 | 10106 ft | 278 kts | 18° |
| 2026-04-30 06:23 | 36.81626 | -4.50694 | 11313 ft | 285 kts | 18° |
| 2026-04-30 06:23 | 36.83516 | -4.49844 | 12579 ft | 290 kts | 18° |
| 2026-04-30 06:23 | 36.85442 | -4.48977 | 13854 ft | 296 kts | 18° |
| 2026-04-30 06:23 | 36.87378 | -4.48107 | 14930 ft | 301 kts | 17° |
| 2026-04-30 06:24 | 36.89372 | -4.47211 | 16022 ft | 306 kts | 17° |
| 2026-04-30 06:24 | 36.91395 | -4.46301 | 17106 ft | 311 kts | 17° |
| 2026-04-30 06:24 | 36.93452 | -4.45376 | 18175 ft | 316 kts | 17° |
| 2026-04-30 06:24 | 36.95520 | -4.44445 | 19064 ft | 322 kts | 17° |
| 2026-04-30 06:25 | 36.97640 | -4.43425 | 19919 ft | 329 kts | 22° |
| 2026-04-30 06:25 | 36.99701 | -4.42033 | 20564 ft | 346 kts | 29° |
| 2026-04-30 06:25 | 37.01817 | -4.40389 | 20911 ft | 369 kts | 31° |
| 2026-04-30 06:25 | 37.04050 | -4.38602 | 21220 ft | 391 kts | 31° |
| 2026-04-30 06:26 | 37.06407 | -4.36713 | 21542 ft | 412 kts | 31° |
| 2026-04-30 06:26 | 37.08852 | -4.34758 | 21842 ft | 430 kts | 31° |
| 2026-04-30 06:26 | 37.11437 | -4.32694 | 22137 ft | 448 kts | 31° |
| 2026-04-30 06:26 | 37.14111 | -4.30561 | 22425 ft | 464 kts | 31° |
| 2026-04-30 06:27 | 37.16872 | -4.28358 | 22861 ft | 475 kts | 31° |
| 2026-04-30 06:27 | 37.19674 | -4.26120 | 23442 ft | 481 kts | 31° |
| 2026-04-30 06:27 | 37.22517 | -4.23849 | 23987 ft | 486 kts | 31° |
| 2026-04-30 06:27 | 37.25385 | -4.21555 | 24466 ft | 490 kts | 31° |
| 2026-04-30 06:28 | 37.28276 | -4.19242 | 24966 ft | 494 kts | 31° |
| 2026-04-30 06:28 | 37.31188 | -4.16911 | 25476 ft | 497 kts | 31° |
| 2026-04-30 06:28 | 37.34086 | -4.14588 | 25981 ft | 501 kts | 31° |
| 2026-04-30 06:28 | 37.37038 | -4.12220 | 26491 ft | 504 kts | 31° |
| 2026-04-30 06:29 | 37.40010 | -4.09834 | 27046 ft | 506 kts | 31° |
| 2026-04-30 06:29 | 37.42980 | -4.07445 | 27773 ft | 504 kts | 31° |
| 2026-04-30 06:29 | 37.45897 | -4.05098 | 28442 ft | 503 kts | 31° |
| 2026-04-30 06:29 | 37.48846 | -4.02723 | 29109 ft | 502 kts | 31° |
| 2026-04-30 06:30 | 37.51786 | -4.00353 | 29812 ft | 500 kts | 31° |
| 2026-04-30 06:30 | 37.54724 | -3.97982 | 30423 ft | 499 kts | 31° |
| 2026-04-30 06:30 | 37.57647 | -3.95622 | 31010 ft | 498 kts | 31° |
| 2026-04-30 06:30 | 37.60528 | -3.93293 | 31585 ft | 496 kts | 31° |
| 2026-04-30 06:31 | 37.63440 | -3.90937 | 32165 ft | 495 kts | 31° |
| 2026-04-30 06:31 | 37.66334 | -3.88593 | 32757 ft | 493 kts | 31° |
| 2026-04-30 06:31 | 37.69221 | -3.86253 | 33289 ft | 492 kts | 31° |
| 2026-04-30 06:31 | 37.72099 | -3.83918 | 33821 ft | 491 kts | 31° |
| 2026-04-30 06:32 | 37.74948 | -3.81603 | 34311 ft | 490 kts | 31° |
| 2026-04-30 06:32 | 37.77814 | -3.79273 | 34763 ft | 489 kts | 31° |
| 2026-04-30 06:32 | 37.80681 | -3.76941 | 35155 ft | 489 kts | 31° |
| 2026-04-30 06:32 | 37.83629 | -3.74802 | 35526 ft | 486 kts | 21° |
| 2026-04-30 06:33 | 37.86797 | -3.73326 | 35920 ft | 483 kts | 15° |
| 2026-04-30 06:33 | 37.90015 | -3.72074 | 36333 ft | 483 kts | 13° |
| 2026-04-30 06:33 | 37.93200 | -3.70874 | 36702 ft | 483 kts | 13° |
| 2026-04-30 06:33 | 37.96423 | -3.69660 | 37075 ft | 482 kts | 13° |
| 2026-04-30 06:34 | 37.99658 | -3.68435 | 37463 ft | 482 kts | 13° |
| 2026-04-30 06:34 | 38.02840 | -3.67225 | 37842 ft | 481 kts | 13° |
| 2026-04-30 06:34 | 38.06048 | -3.66001 | 38227 ft | 481 kts | 13° |
| 2026-04-30 06:34 | 38.09257 | -3.64775 | 38606 ft | 480 kts | 13° |
| 2026-04-30 06:35 | 38.12461 | -3.63553 | 38931 ft | 480 kts | 12° |
| 2026-04-30 06:35 | 38.15705 | -3.62581 | 39078 ft | 478 kts | 5° |
| 2026-04-30 06:35 | 38.19008 | -3.61995 | 39073 ft | 477 kts | 1° |
| 2026-04-30 06:36 | 38.25605 | -3.61303 | 39073 ft | 477 kts | 359° |
| 2026-04-30 06:36 | 38.32227 | -3.60767 | 39071 ft | 477 kts | 359° |
| 2026-04-30 06:37 | 38.38859 | -3.60186 | 39070 ft | 477 kts | 359° |
| 2026-04-30 06:37 | 38.45446 | -3.59562 | 39066 ft | 477 kts | 359° |
| 2026-04-30 06:38 | 38.52068 | -3.58916 | 39073 ft | 477 kts | 360° |
| 2026-04-30 06:38 | 38.58697 | -3.58267 | 39069 ft | 477 kts | 360° |
| 2026-04-30 06:39 | 38.65326 | -3.57619 | 39068 ft | 477 kts | 359° |
| 2026-04-30 06:39 | 38.71949 | -3.56971 | 39069 ft | 476 kts | 359° |
| 2026-04-30 06:40 | 38.78517 | -3.56328 | 39068 ft | 476 kts | 359° |
| 2026-04-30 06:40 | 38.85146 | -3.55679 | 39078 ft | 476 kts | 359° |
| 2026-04-30 06:41 | 38.91723 | -3.55032 | 39068 ft | 476 kts | 359° |
| 2026-04-30 06:41 | 38.98351 | -3.54380 | 39067 ft | 475 kts | 359° |
| 2026-04-30 06:42 | 39.04919 | -3.53731 | 39067 ft | 475 kts | 359° |
| 2026-04-30 06:42 | 39.11528 | -3.53073 | 39065 ft | 476 kts | 359° |
| 2026-04-30 06:43 | 39.18135 | -3.52414 | 39066 ft | 476 kts | 359° |
| 2026-04-30 06:43 | 39.24742 | -3.51755 | 39065 ft | 476 kts | 359° |
| 2026-04-30 06:44 | 39.31309 | -3.51098 | 39078 ft | 476 kts | 359° |
| 2026-04-30 06:44 | 39.37914 | -3.50436 | 39058 ft | 475 kts | 359° |
| 2026-04-30 06:45 | 39.44509 | -3.49775 | 39061 ft | 475 kts | 359° |
| 2026-04-30 06:45 | 39.51113 | -3.49111 | 39061 ft | 475 kts | 359° |
| 2026-04-30 06:46 | 39.57671 | -3.48450 | 39059 ft | 474 kts | 359° |
| 2026-04-30 06:46 | 39.64259 | -3.47789 | 39053 ft | 474 kts | 359° |
| 2026-04-30 06:47 | 39.70843 | -3.47129 | 39053 ft | 474 kts | 359° |
| 2026-04-30 06:47 | 39.77425 | -3.46464 | 39060 ft | 474 kts | 359° |
| 2026-04-30 06:48 | 39.83955 | -3.45389 | 39053 ft | 476 kts | 3° |
| 2026-04-30 06:48 | 39.90509 | -3.44013 | 39048 ft | 477 kts | 4° |
| 2026-04-30 06:49 | 39.97070 | -3.42628 | 39045 ft | 477 kts | 3° |
| 2026-04-30 06:49 | 40.03597 | -3.41293 | 39045 ft | 476 kts | 2° |
| 2026-04-30 06:50 | 40.10139 | -3.39976 | 39053 ft | 475 kts | 2° |
| 2026-04-30 06:50 | 40.16681 | -3.38662 | 39055 ft | 475 kts | 2° |
| 2026-04-30 06:51 | 40.23187 | -3.37351 | 39060 ft | 475 kts | 2° |
| 2026-04-30 06:51 | 40.29733 | -3.36027 | 39062 ft | 475 kts | 2° |
| 2026-04-30 06:52 | 40.36270 | -3.34703 | 39065 ft | 475 kts | 2° |
| 2026-04-30 06:52 | 40.42770 | -3.33383 | 39098 ft | 475 kts | 2° |
| 2026-04-30 06:53 | 40.49298 | -3.32054 | 39072 ft | 474 kts | 2° |
| 2026-04-30 06:53 | 40.55820 | -3.30724 | 39070 ft | 474 kts | 2° |
| 2026-04-30 06:54 | 40.61243 | -3.29617 | 39065 ft | 474 kts | 2° |
| 2026-04-30 06:54 | 40.67773 | -3.28282 | 39070 ft | 474 kts | 2° |
| 2026-04-30 06:55 | 40.74251 | -3.26954 | 39054 ft | 474 kts | 2° |
| 2026-04-30 06:55 | 40.80774 | -3.25615 | 39048 ft | 474 kts | 2° |
| 2026-04-30 06:56 | 40.87305 | -3.24254 | 39061 ft | 474 kts | 3° |
| 2026-04-30 06:56 | 40.93777 | -3.22817 | 39048 ft | 474 kts | 3° |
| 2026-04-30 06:57 | 41.00274 | -3.21346 | 39048 ft | 473 kts | 3° |
| 2026-04-30 06:57 | 41.06774 | -3.19880 | 39046 ft | 473 kts | 3° |
| 2026-04-30 06:58 | 41.13288 | -3.18414 | 39045 ft | 474 kts | 4° |
| 2026-04-30 06:58 | 41.19752 | -3.16957 | 39042 ft | 473 kts | 4° |
| 2026-04-30 06:59 | 41.26229 | -3.15495 | 39040 ft | 473 kts | 4° |
| 2026-04-30 06:59 | 41.32727 | -3.14026 | 39048 ft | 473 kts | 4° |
| 2026-04-30 07:00 | 41.39225 | -3.12554 | 39039 ft | 473 kts | 4° |
| 2026-04-30 07:00 | 41.45716 | -3.11080 | 39042 ft | 473 kts | 4° |
| 2026-04-30 07:01 | 41.52215 | -3.09602 | 39065 ft | 473 kts | 4° |
| 2026-04-30 07:01 | 41.58671 | -3.08138 | 39039 ft | 473 kts | 4° |
| 2026-04-30 07:02 | 41.65182 | -3.06660 | 39037 ft | 474 kts | 4° |
| 2026-04-30 07:02 | 41.71698 | -3.05176 | 39036 ft | 473 kts | 4° |
| 2026-04-30 07:03 | 41.78161 | -3.03696 | 39036 ft | 474 kts | 4° |
| 2026-04-30 07:03 | 41.84670 | -3.02196 | 39036 ft | 474 kts | 5° |
| 2026-04-30 07:04 | 41.91187 | -3.00690 | 39038 ft | 474 kts | 5° |
| 2026-04-30 07:04 | 41.97668 | -2.99191 | 39042 ft | 474 kts | 5° |
| 2026-04-30 07:05 | 42.07445 | -2.96924 | 39031 ft | 475 kts | 5° |
| 2026-04-30 07:05 | 42.13960 | -2.95411 | 39032 ft | 475 kts | 5° |
| 2026-04-30 07:06 | 42.20431 | -2.93902 | 39032 ft | 475 kts | 6° |
| 2026-04-30 07:06 | 42.26978 | -2.92376 | 39029 ft | 476 kts | 5° |
| 2026-04-30 07:07 | 42.33507 | -2.90850 | 39034 ft | 476 kts | 6° |
| 2026-04-30 07:07 | 42.40011 | -2.89324 | 39039 ft | 476 kts | 6° |
| 2026-04-30 07:08 | 42.46538 | -2.88304 | 39036 ft | 471 kts | 356° |
| 2026-04-30 07:08 | 42.53096 | -2.88421 | 39034 ft | 470 kts | 354° |
| 2026-04-30 07:09 | 42.59642 | -2.88758 | 39037 ft | 470 kts | 354° |
| 2026-04-30 07:09 | 42.66185 | -2.89133 | 39031 ft | 470 kts | 354° |
| 2026-04-30 07:10 | 42.72708 | -2.89491 | 39034 ft | 471 kts | 354° |
| 2026-04-30 07:10 | 42.79228 | -2.89835 | 39026 ft | 471 kts | 354° |
| 2026-04-30 07:11 | 42.85775 | -2.90177 | 39022 ft | 471 kts | 354° |
| 2026-04-30 07:11 | 42.92329 | -2.90520 | 39024 ft | 471 kts | 354° |
| 2026-04-30 07:12 | 42.98879 | -2.90865 | 39029 ft | 470 kts | 354° |
| 2026-04-30 07:12 | 43.05397 | -2.91209 | 39019 ft | 472 kts | 354° |
| 2026-04-30 07:13 | 43.11970 | -2.91557 | 39017 ft | 472 kts | 354° |
| 2026-04-30 07:13 | 43.18546 | -2.91904 | 39019 ft | 472 kts | 354° |
| 2026-04-30 07:14 | 43.25116 | -2.92253 | 39019 ft | 472 kts | 355° |
| 2026-04-30 07:14 | 43.31662 | -2.91973 | 39021 ft | 477 kts | 6° |
| 2026-04-30 07:15 | 43.38209 | -2.90327 | 39021 ft | 478 kts | 9° |
| 2026-04-30 07:15 | 43.44681 | -2.88428 | 39018 ft | 478 kts | 10° |
| 2026-04-30 07:16 | 43.51187 | -2.86470 | 39014 ft | 478 kts | 10° |
| 2026-04-30 07:16 | 43.57696 | -2.84529 | 39011 ft | 478 kts | 10° |
| 2026-04-30 07:17 | 43.64164 | -2.82614 | 39008 ft | 477 kts | 10° |
| 2026-04-30 07:18 | 43.73904 | -2.79627 | 39010 ft | 478 kts | 11° |
| 2026-04-30 07:18 | 43.80381 | -2.77504 | 39017 ft | 478 kts | 12° |
| 2026-04-30 07:19 | 43.86860 | -2.75367 | 39012 ft | 478 kts | 12° |
| 2026-04-30 07:19 | 43.93311 | -2.73354 | 39012 ft | 477 kts | 9° |
| 2026-04-30 07:20 | 43.99884 | -2.71846 | 39015 ft | 477 kts | 7° |
| 2026-04-30 07:20 | 44.06424 | -2.70491 | 39015 ft | 477 kts | 7° |
| 2026-04-30 07:21 | 44.12958 | -2.69099 | 39014 ft | 477 kts | 8° |
| 2026-04-30 07:21 | 44.19519 | -2.67656 | 39012 ft | 477 kts | 8° |
| 2026-04-30 07:22 | 44.29354 | -2.65462 | 39010 ft | 477 kts | 8° |
| 2026-04-30 07:22 | 44.35879 | -2.64003 | 39009 ft | 477 kts | 8° |
| 2026-04-30 07:23 | 44.42451 | -2.62532 | 39011 ft | 477 kts | 8° |
| 2026-04-30 07:23 | 44.48984 | -2.61067 | 39009 ft | 477 kts | 8° |
| 2026-04-30 07:24 | 44.55544 | -2.59592 | 39004 ft | 478 kts | 8° |
| 2026-04-30 07:24 | 44.62120 | -2.58111 | 39005 ft | 478 kts | 8° |
| 2026-04-30 07:25 | 44.68705 | -2.56624 | 39004 ft | 479 kts | 8° |
| 2026-04-30 07:25 | 44.75295 | -2.55132 | 39004 ft | 479 kts | 8° |
| 2026-04-30 07:26 | 44.81834 | -2.53649 | 39003 ft | 479 kts | 8° |
| 2026-04-30 07:26 | 44.88428 | -2.52149 | 38999 ft | 479 kts | 8° |
| 2026-04-30 07:27 | 44.95023 | -2.50646 | 39001 ft | 479 kts | 8° |
| 2026-04-30 07:27 | 45.01557 | -2.49153 | 39001 ft | 479 kts | 8° |
| 2026-04-30 07:28 | 45.08147 | -2.47645 | 38999 ft | 479 kts | 8° |
| 2026-04-30 07:28 | 45.14728 | -2.46134 | 38999 ft | 479 kts | 8° |
| 2026-04-30 07:29 | 45.21322 | -2.44617 | 38999 ft | 479 kts | 9° |
| 2026-04-30 07:29 | 45.27885 | -2.43104 | 38999 ft | 479 kts | 9° |
| 2026-04-30 07:30 | 45.37749 | -2.40822 | 38996 ft | 479 kts | 9° |
| 2026-04-30 07:31 | 45.44355 | -2.39290 | 38996 ft | 480 kts | 9° |
| 2026-04-30 07:31 | 45.50906 | -2.37767 | 38996 ft | 479 kts | 9° |
| 2026-04-30 07:32 | 45.57503 | -2.36229 | 38996 ft | 479 kts | 9° |
| 2026-04-30 07:32 | 45.64095 | -2.34689 | 38996 ft | 479 kts | 9° |
| 2026-04-30 07:33 | 45.70650 | -2.33155 | 38999 ft | 480 kts | 9° |
| 2026-04-30 07:33 | 45.77250 | -2.31606 | 38998 ft | 480 kts | 9° |
| 2026-04-30 07:34 | 45.83842 | -2.30055 | 38998 ft | 479 kts | 9° |
| 2026-04-30 07:34 | 45.90428 | -2.28501 | 38999 ft | 479 kts | 9° |
| 2026-04-30 07:35 | 45.96964 | -2.26956 | 39001 ft | 478 kts | 9° |
| 2026-04-30 07:35 | 46.03550 | -2.25395 | 39001 ft | 478 kts | 9° |
| 2026-04-30 07:36 | 46.10115 | -2.23817 | 39001 ft | 478 kts | 9° |
| 2026-04-30 07:36 | 46.16687 | -2.22213 | 38999 ft | 478 kts | 9° |
| 2026-04-30 07:37 | 46.23212 | -2.20616 | 39003 ft | 477 kts | 9° |
| 2026-04-30 07:37 | 46.29768 | -2.19009 | 39003 ft | 477 kts | 9° |
| 2026-04-30 07:38 | 46.36317 | -2.17402 | 39004 ft | 477 kts | 10° |
| 2026-04-30 07:38 | 46.42865 | -2.15792 | 39004 ft | 477 kts | 10° |
| 2026-04-30 07:39 | 46.49381 | -2.14185 | 39000 ft | 476 kts | 10° |
| 2026-04-30 07:39 | 46.55931 | -2.12566 | 38998 ft | 477 kts | 10° |
| 2026-04-30 07:40 | 46.62448 | -2.10951 | 39000 ft | 477 kts | 10° |
| 2026-04-30 07:40 | 46.68994 | -2.09325 | 38998 ft | 477 kts | 10° |
| 2026-04-30 07:41 | 46.75511 | -2.07702 | 39001 ft | 477 kts | 10° |
| 2026-04-30 07:41 | 46.80967 | -2.06341 | 39002 ft | 477 kts | 10° |
| 2026-04-30 07:42 | 46.88583 | -2.04435 | 39002 ft | 477 kts | 10° |
| 2026-04-30 07:42 | 46.94023 | -2.03071 | 39002 ft | 476 kts | 10° |
| 2026-04-30 07:43 | 47.00400 | -2.00555 | 39001 ft | 473 kts | 25° |
| 2026-04-30 07:43 | 47.06017 | -1.95585 | 39001 ft | 472 kts | 36° |
| 2026-04-30 07:44 | 47.11298 | -1.89862 | 39008 ft | 472 kts | 38° |
| 2026-04-30 07:44 | 47.16981 | -1.85057 | 39015 ft | 474 kts | 21° |
| 2026-04-30 07:45 | 47.23322 | -1.82543 | 39016 ft | 475 kts | 13° |
| 2026-04-30 07:45 | 47.29821 | -1.80636 | 39017 ft | 476 kts | 11° |
| 2026-04-30 07:46 | 47.36347 | -1.78838 | 39016 ft | 476 kts | 11° |
| 2026-04-30 07:46 | 47.42829 | -1.77016 | 39016 ft | 476 kts | 11° |
| 2026-04-30 07:47 | 47.49344 | -1.75144 | 39023 ft | 476 kts | 12° |
| 2026-04-30 07:47 | 47.55855 | -1.73256 | 39026 ft | 476 kts | 12° |
| 2026-04-30 07:48 | 47.62326 | -1.71374 | 39034 ft | 475 kts | 12° |
| 2026-04-30 07:48 | 47.68816 | -1.69484 | 39034 ft | 475 kts | 12° |
| 2026-04-30 07:49 | 47.75317 | -1.67586 | 39040 ft | 475 kts | 12° |
| 2026-04-30 07:49 | 47.81770 | -1.65698 | 39046 ft | 475 kts | 12° |
| 2026-04-30 07:50 | 47.88255 | -1.63796 | 39048 ft | 475 kts | 12° |
| 2026-04-30 07:50 | 47.94763 | -1.61881 | 39048 ft | 475 kts | 12° |
| 2026-04-30 07:51 | 48.01220 | -1.59977 | 39048 ft | 475 kts | 12° |
| 2026-04-30 07:51 | 48.07697 | -1.58062 | 39048 ft | 476 kts | 12° |
| 2026-04-30 07:52 | 48.14208 | -1.56132 | 39050 ft | 476 kts | 12° |
| 2026-04-30 07:52 | 48.20691 | -1.54206 | 39052 ft | 476 kts | 12° |
| 2026-04-30 07:53 | 48.27202 | -1.52265 | 39058 ft | 477 kts | 12° |
| 2026-04-30 07:53 | 48.33695 | -1.50326 | 39063 ft | 478 kts | 12° |
| 2026-04-30 07:54 | 48.40225 | -1.48371 | 39073 ft | 478 kts | 12° |
| 2026-04-30 07:54 | 48.46750 | -1.46411 | 39070 ft | 477 kts | 12° |
| 2026-04-30 07:55 | 48.53277 | -1.44446 | 39073 ft | 477 kts | 12° |
| 2026-04-30 07:55 | 48.59745 | -1.42494 | 39072 ft | 477 kts | 12° |
| 2026-04-30 07:56 | 48.66266 | -1.40521 | 39075 ft | 477 kts | 12° |
| 2026-04-30 07:56 | 48.72763 | -1.38512 | 39078 ft | 476 kts | 13° |
| 2026-04-30 07:57 | 48.79255 | -1.36463 | 39078 ft | 476 kts | 13° |
| 2026-04-30 07:57 | 48.85699 | -1.34423 | 39078 ft | 476 kts | 13° |
| 2026-04-30 07:58 | 48.92192 | -1.32367 | 39083 ft | 476 kts | 13° |
| 2026-04-30 07:58 | 48.98676 | -1.30311 | 39082 ft | 475 kts | 13° |
| 2026-04-30 07:59 | 49.05110 | -1.28266 | 39084 ft | 474 kts | 13° |
| 2026-04-30 07:59 | 49.11587 | -1.26202 | 39086 ft | 474 kts | 13° |
| 2026-04-30 08:00 | 49.21271 | -1.23104 | 39099 ft | 474 kts | 13° |
| 2026-04-30 08:00 | 49.27694 | -1.21043 | 39105 ft | 474 kts | 13° |
| 2026-04-30 08:01 | 49.34161 | -1.18962 | 39102 ft | 474 kts | 13° |
| 2026-04-30 08:01 | 49.40618 | -1.16879 | 39104 ft | 473 kts | 13° |
| 2026-04-30 08:02 | 49.50296 | -1.13747 | 39108 ft | 473 kts | 13° |
| 2026-04-30 08:03 | 49.56549 | -1.10946 | 38807 ft | 463 kts | 28° |
| 2026-04-30 08:03 | 49.61580 | -1.05084 | 38262 ft | 455 kts | 49° |
| 2026-04-30 08:03 | 49.63702 | -1.01455 | 37933 ft | 453 kts | 52° |
| 2026-04-30 08:04 | 49.65721 | -0.97736 | 37272 ft | 451 kts | 53° |